sensor_id;sensor_type;location;lat;lon;timestamp;P1;durP1;ratioP1;P2;durP2;ratioP2
36241;SDS011;22283;42.748;12.732;2023-07-30T00:01:59;8.68;;;3.65;;
36241;SDS011;22283;42.748;12.732;2023-07-30T00:07:00;8.73;;;3.92;;
36241;SDS011;22283;42.748;12.732;2023-07-30T00:12:01;11.25;;;3.90;;
36241;SDS011;22283;42.748;12.732;2023-07-30T00:17:02;7.80;;;4.00;;
36241;SDS011;22283;42.748;12.732;2023-07-30T00:22:04;4.97;;;2.85;;
36241;SDS011;22283;42.748;12.732;2023-07-30T00:27:05;6.78;;;3.80;;
36241;SDS011;22283;42.748;12.732;2023-07-30T00:32:06;8.93;;;4.00;;
36241;SDS011;22283;42.748;12.732;2023-07-30T00:37:07;7.63;;;3.63;;
36241;SDS011;22283;42.748;12.732;2023-07-30T00:42:08;8.20;;;3.85;;
36241;SDS011;22283;42.748;12.732;2023-07-30T00:52:10;10.45;;;3.75;;
36241;SDS011;22283;42.748;12.732;2023-07-30T00:57:11;8.43;;;3.42;;
36241;SDS011;22283;42.748;12.732;2023-07-30T01:02:12;9.57;;;3.95;;
36241;SDS011;22283;42.748;12.732;2023-07-30T01:07:12;6.82;;;3.65;;
36241;SDS011;22283;42.748;12.732;2023-07-30T01:17:16;11.07;;;4.50;;
36241;SDS011;22283;42.748;12.732;2023-07-30T01:22:17;12.77;;;4.38;;
36241;SDS011;22283;42.748;12.732;2023-07-30T01:27:52;10.77;;;4.13;;
36241;SDS011;22283;42.748;12.732;2023-07-30T01:32:51;8.73;;;3.25;;
36241;SDS011;22283;42.748;12.732;2023-07-30T01:37:53;9.27;;;4.05;;
36241;SDS011;22283;42.748;12.732;2023-07-30T01:42:55;6.47;;;3.80;;
36241;SDS011;22283;42.748;12.732;2023-07-30T01:52:56;5.75;;;3.40;;
36241;SDS011;22283;42.748;12.732;2023-07-30T02:02:57;9.60;;;4.00;;
36241;SDS011;22283;42.748;12.732;2023-07-30T02:12:59;6.15;;;3.35;;
36241;SDS011;22283;42.748;12.732;2023-07-30T02:23:00;7.75;;;3.25;;
36241;SDS011;22283;42.748;12.732;2023-07-30T02:33:02;6.43;;;3.38;;
36241;SDS011;22283;42.748;12.732;2023-07-30T02:43:03;8.10;;;4.20;;
36241;SDS011;22283;42.748;12.732;2023-07-30T02:53:05;9.23;;;3.80;;
36241;SDS011;22283;42.748;12.732;2023-07-30T03:03:06;7.22;;;3.40;;
36241;SDS011;22283;42.748;12.732;2023-07-30T03:13:07;10.98;;;3.65;;
36241;SDS011;22283;42.748;12.732;2023-07-30T03:23:09;6.53;;;3.70;;
36241;SDS011;22283;42.748;12.732;2023-07-30T03:33:16;10.38;;;4.45;;
36241;SDS011;22283;42.748;12.732;2023-07-30T03:43:17;9.90;;;3.97;;
36241;SDS011;22283;42.748;12.732;2023-07-30T03:53:19;7.60;;;3.60;;
36241;SDS011;22283;42.748;12.732;2023-07-30T04:03:20;7.68;;;3.97;;
36241;SDS011;22283;42.748;12.732;2023-07-30T04:13:21;11.50;;;3.65;;
36241;SDS011;22283;42.748;12.732;2023-07-30T04:18:22;40.33;;;6.22;;
36241;SDS011;22283;42.748;12.732;2023-07-30T04:28:24;10.48;;;3.40;;
36241;SDS011;22283;42.748;12.732;2023-07-30T04:33:25;10.00;;;3.92;;
36241;SDS011;22283;42.748;12.732;2023-07-30T04:38:29;10.27;;;4.22;;
36241;SDS011;22283;42.748;12.732;2023-07-30T04:43:32;8.27;;;3.85;;
36241;SDS011;22283;42.748;12.732;2023-07-30T04:48:34;7.00;;;3.70;;
36241;SDS011;22283;42.748;12.732;2023-07-30T04:53:42;10.95;;;3.97;;
36241;SDS011;22283;42.748;12.732;2023-07-30T04:58:43;10.75;;;3.47;;
36241;SDS011;22283;42.748;12.732;2023-07-30T05:03:44;8.40;;;4.15;;
36241;SDS011;22283;42.748;12.732;2023-07-30T05:08:45;8.38;;;3.20;;
36241;SDS011;22283;42.748;12.732;2023-07-30T05:13:45;6.75;;;3.45;;
36241;SDS011;22283;42.748;12.732;2023-07-30T05:18:49;5.50;;;3.40;;
36241;SDS011;22283;42.748;12.732;2023-07-30T05:23:50;7.82;;;3.25;;
36241;SDS011;22283;42.748;12.732;2023-07-30T05:28:51;9.35;;;3.65;;
36241;SDS011;22283;42.748;12.732;2023-07-30T05:33:51;10.35;;;2.92;;
36241;SDS011;22283;42.748;12.732;2023-07-30T05:38:52;8.43;;;3.45;;
36241;SDS011;22283;42.748;12.732;2023-07-30T05:43:53;11.57;;;3.08;;
36241;SDS011;22283;42.748;12.732;2023-07-30T05:48:54;10.35;;;3.55;;
36241;SDS011;22283;42.748;12.732;2023-07-30T05:53:56;8.63;;;3.20;;
36241;SDS011;22283;42.748;12.732;2023-07-30T05:59:03;6.95;;;3.10;;
36241;SDS011;22283;42.748;12.732;2023-07-30T06:04:04;9.13;;;3.45;;
36241;SDS011;22283;42.748;12.732;2023-07-30T06:09:04;7.40;;;2.83;;
36241;SDS011;22283;42.748;12.732;2023-07-30T06:14:05;6.80;;;3.20;;
36241;SDS011;22283;42.748;12.732;2023-07-30T06:19:06;9.15;;;4.13;;
36241;SDS011;22283;42.748;12.732;2023-07-30T06:24:07;13.75;;;3.53;;
36241;SDS011;22283;42.748;12.732;2023-07-30T06:29:08;8.32;;;3.97;;
36241;SDS011;22283;42.748;12.732;2023-07-30T06:34:09;11.25;;;3.80;;
36241;SDS011;22283;42.748;12.732;2023-07-30T06:39:10;5.75;;;3.45;;
36241;SDS011;22283;42.748;12.732;2023-07-30T06:44:10;9.57;;;3.33;;
36241;SDS011;22283;42.748;12.732;2023-07-30T06:49:11;7.53;;;2.80;;
36241;SDS011;22283;42.748;12.732;2023-07-30T06:54:12;6.72;;;3.78;;
36241;SDS011;22283;42.748;12.732;2023-07-30T06:59:12;8.20;;;3.40;;
36241;SDS011;22283;42.748;12.732;2023-07-30T07:04:13;5.63;;;2.80;;
36241;SDS011;22283;42.748;12.732;2023-07-30T07:09:14;8.30;;;3.03;;
36241;SDS011;22283;42.748;12.732;2023-07-30T07:14:15;5.75;;;3.33;;
36241;SDS011;22283;42.748;12.732;2023-07-30T07:19:15;5.22;;;3.40;;
36241;SDS011;22283;42.748;12.732;2023-07-30T07:24:16;8.18;;;3.15;;
36241;SDS011;22283;42.748;12.732;2023-07-30T07:29:17;6.70;;;4.25;;
36241;SDS011;22283;42.748;12.732;2023-07-30T07:34:18;7.70;;;3.38;;
36241;SDS011;22283;42.748;12.732;2023-07-30T07:39:19;6.10;;;2.90;;
36241;SDS011;22283;42.748;12.732;2023-07-30T07:44:20;13.23;;;3.53;;
36241;SDS011;22283;42.748;12.732;2023-07-30T07:49:21;10.85;;;3.53;;
36241;SDS011;22283;42.748;12.732;2023-07-30T07:54:22;14.50;;;3.55;;
36241;SDS011;22283;42.748;12.732;2023-07-30T07:59:23;7.90;;;3.28;;
36241;SDS011;22283;42.748;12.732;2023-07-30T08:04:24;8.98;;;3.17;;
36241;SDS011;22283;42.748;12.732;2023-07-30T08:09:25;6.82;;;3.50;;
36241;SDS011;22283;42.748;12.732;2023-07-30T08:14:26;8.18;;;3.55;;
36241;SDS011;22283;42.748;12.732;2023-07-30T08:19:27;5.65;;;3.10;;
36241;SDS011;22283;42.748;12.732;2023-07-30T08:24:27;7.63;;;3.65;;
36241;SDS011;22283;42.748;12.732;2023-07-30T08:29:28;8.18;;;3.28;;
36241;SDS011;22283;42.748;12.732;2023-07-30T08:34:29;18.30;;;3.20;;
36241;SDS011;22283;42.748;12.732;2023-07-30T08:39:30;8.25;;;3.40;;
36241;SDS011;22283;42.748;12.732;2023-07-30T08:44:31;17.58;;;4.15;;
36241;SDS011;22283;42.748;12.732;2023-07-30T08:49:32;11.70;;;4.13;;
36241;SDS011;22283;42.748;12.732;2023-07-30T08:54:33;4.78;;;3.65;;
36241;SDS011;22283;42.748;12.732;2023-07-30T08:59:39;7.95;;;3.30;;
36241;SDS011;22283;42.748;12.732;2023-07-30T09:04:46;8.10;;;3.75;;
36241;SDS011;22283;42.748;12.732;2023-07-30T09:09:50;9.95;;;3.60;;
36241;SDS011;22283;42.748;12.732;2023-07-30T09:14:51;10.63;;;3.55;;
36241;SDS011;22283;42.748;12.732;2023-07-30T09:19:52;7.22;;;3.40;;
36241;SDS011;22283;42.748;12.732;2023-07-30T09:24:53;12.68;;;4.07;;
36241;SDS011;22283;42.748;12.732;2023-07-30T09:29:56;5.15;;;3.55;;
36241;SDS011;22283;42.748;12.732;2023-07-30T09:35:07;36.13;;;5.45;;
36241;SDS011;22283;42.748;12.732;2023-07-30T09:40:11;26.30;;;3.88;;
36241;SDS011;22283;42.748;12.732;2023-07-30T09:45:17;7.72;;;3.30;;
36241;SDS011;22283;42.748;12.732;2023-07-30T09:50:20;4.88;;;3.08;;
36241;SDS011;22283;42.748;12.732;2023-07-30T09:55:21;12.00;;;3.45;;
36241;SDS011;22283;42.748;12.732;2023-07-30T10:00:21;6.70;;;3.28;;
36241;SDS011;22283;42.748;12.732;2023-07-30T10:05:23;8.68;;;3.80;;
36241;SDS011;22283;42.748;12.732;2023-07-30T10:10:29;9.90;;;2.70;;
36241;SDS011;22283;42.748;12.732;2023-07-30T10:15:33;8.98;;;3.15;;
36241;SDS011;22283;42.748;12.732;2023-07-30T10:20:36;6.55;;;3.08;;
36241;SDS011;22283;42.748;12.732;2023-07-30T10:25:47;8.40;;;3.10;;
36241;SDS011;22283;42.748;12.732;2023-07-30T10:30:55;6.45;;;2.60;;
36241;SDS011;22283;42.748;12.732;2023-07-30T10:35:59;9.15;;;3.70;;
36241;SDS011;22283;42.748;12.732;2023-07-30T10:41:01;7.85;;;3.13;;
36241;SDS011;22283;42.748;12.732;2023-07-30T10:46:04;8.43;;;3.53;;
36241;SDS011;22283;42.748;12.732;2023-07-30T10:51:06;7.80;;;3.45;;
36241;SDS011;22283;42.748;12.732;2023-07-30T10:56:09;5.45;;;3.35;;
36241;SDS011;22283;42.748;12.732;2023-07-30T11:01:10;9.77;;;3.40;;
36241;SDS011;22283;42.748;12.732;2023-07-30T11:06:11;7.28;;;3.25;;
36241;SDS011;22283;42.748;12.732;2023-07-30T11:11:11;9.93;;;4.03;;
36241;SDS011;22283;42.748;12.732;2023-07-30T11:16:13;7.15;;;3.67;;
36241;SDS011;22283;42.748;12.732;2023-07-30T11:21:16;7.22;;;2.92;;
36241;SDS011;22283;42.748;12.732;2023-07-30T11:26:18;9.27;;;3.58;;
36241;SDS011;22283;42.748;12.732;2023-07-30T11:31:20;5.43;;;3.15;;
36241;SDS011;22283;42.748;12.732;2023-07-30T11:36:22;5.50;;;3.50;;
36241;SDS011;22283;42.748;12.732;2023-07-30T11:41:25;6.25;;;3.80;;
36241;SDS011;22283;42.748;12.732;2023-07-30T11:46:27;10.07;;;3.97;;
36241;SDS011;22283;42.748;12.732;2023-07-30T11:51:30;6.25;;;3.40;;
36241;SDS011;22283;42.748;12.732;2023-07-30T11:56:31;5.38;;;3.40;;
36241;SDS011;22283;42.748;12.732;2023-07-30T12:01:34;12.52;;;3.83;;
36241;SDS011;22283;42.748;12.732;2023-07-30T12:06:46;6.07;;;3.78;;
36241;SDS011;22283;42.748;12.732;2023-07-30T12:11:50;7.68;;;3.83;;
36241;SDS011;22283;42.748;12.732;2023-07-30T12:16:52;8.77;;;3.72;;
36241;SDS011;22283;42.748;12.732;2023-07-30T12:21:53;9.60;;;3.58;;
36241;SDS011;22283;42.748;12.732;2023-07-30T12:26:54;11.15;;;4.78;;
36241;SDS011;22283;42.748;12.732;2023-07-30T12:31:54;9.48;;;4.13;;
36241;SDS011;22283;42.748;12.732;2023-07-30T12:36:56;7.40;;;3.70;;
36241;SDS011;22283;42.748;12.732;2023-07-30T12:41:58;9.25;;;4.05;;
36241;SDS011;22283;42.748;12.732;2023-07-30T12:46:58;6.18;;;3.70;;
36241;SDS011;22283;42.748;12.732;2023-07-30T12:51:59;11.23;;;3.83;;
36241;SDS011;22283;42.748;12.732;2023-07-30T12:57:00;58.55;;;4.95;;
36241;SDS011;22283;42.748;12.732;2023-07-30T13:02:00;9.40;;;3.70;;
36241;SDS011;22283;42.748;12.732;2023-07-30T13:07:01;9.75;;;3.20;;
36241;SDS011;22283;42.748;12.732;2023-07-30T13:12:02;7.55;;;3.65;;
36241;SDS011;22283;42.748;12.732;2023-07-30T13:17:03;5.75;;;3.38;;
36241;SDS011;22283;42.748;12.732;2023-07-30T13:22:04;8.00;;;3.83;;
36241;SDS011;22283;42.748;12.732;2023-07-30T13:27:05;10.82;;;4.43;;
36241;SDS011;22283;42.748;12.732;2023-07-30T13:32:05;7.82;;;3.35;;
36241;SDS011;22283;42.748;12.732;2023-07-30T13:37:06;9.02;;;3.50;;
36241;SDS011;22283;42.748;12.732;2023-07-30T13:42:07;6.65;;;3.30;;
36241;SDS011;22283;42.748;12.732;2023-07-30T13:47:08;15.90;;;3.88;;
36241;SDS011;22283;42.748;12.732;2023-07-30T13:52:09;13.60;;;4.00;;
36241;SDS011;22283;42.748;12.732;2023-07-30T13:57:09;15.25;;;3.63;;
36241;SDS011;22283;42.748;12.732;2023-07-30T14:02:10;7.32;;;3.90;;
36241;SDS011;22283;42.748;12.732;2023-07-30T14:07:11;9.10;;;3.40;;
36241;SDS011;22283;42.748;12.732;2023-07-30T14:12:12;8.23;;;3.30;;
36241;SDS011;22283;42.748;12.732;2023-07-30T14:17:12;8.05;;;3.80;;
36241;SDS011;22283;42.748;12.732;2023-07-30T14:22:13;14.02;;;3.47;;
36241;SDS011;22283;42.748;12.732;2023-07-30T14:27:14;7.97;;;3.40;;
36241;SDS011;22283;42.748;12.732;2023-07-30T14:32:15;8.90;;;3.00;;
36241;SDS011;22283;42.748;12.732;2023-07-30T14:37:16;16.73;;;3.55;;
36241;SDS011;22283;42.748;12.732;2023-07-30T14:42:16;9.55;;;3.15;;
36241;SDS011;22283;42.748;12.732;2023-07-30T14:47:17;11.85;;;3.47;;
36241;SDS011;22283;42.748;12.732;2023-07-30T14:52:18;20.75;;;3.33;;
36241;SDS011;22283;42.748;12.732;2023-07-30T14:57:19;5.00;;;3.10;;
36241;SDS011;22283;42.748;12.732;2023-07-30T15:02:20;9.88;;;3.72;;
36241;SDS011;22283;42.748;12.732;2023-07-30T15:07:20;19.42;;;3.30;;
36241;SDS011;22283;42.748;12.732;2023-07-30T15:12:25;8.90;;;3.45;;
36241;SDS011;22283;42.748;12.732;2023-07-30T15:17:26;7.68;;;3.75;;
36241;SDS011;22283;42.748;12.732;2023-07-30T15:22:26;4.18;;;3.05;;
36241;SDS011;22283;42.748;12.732;2023-07-30T15:27:27;11.65;;;3.40;;
36241;SDS011;22283;42.748;12.732;2023-07-30T15:32:28;9.65;;;3.58;;
36241;SDS011;22283;42.748;12.732;2023-07-30T15:37:33;6.75;;;3.28;;
36241;SDS011;22283;42.748;12.732;2023-07-30T15:42:34;12.25;;;3.50;;
36241;SDS011;22283;42.748;12.732;2023-07-30T15:47:34;6.63;;;2.78;;
36241;SDS011;22283;42.748;12.732;2023-07-30T15:52:35;5.95;;;3.00;;
36241;SDS011;22283;42.748;12.732;2023-07-30T15:57:36;7.30;;;3.08;;
36241;SDS011;22283;42.748;12.732;2023-07-30T16:02:36;8.55;;;3.15;;
36241;SDS011;22283;42.748;12.732;2023-07-30T16:07:37;11.80;;;3.72;;
36241;SDS011;22283;42.748;12.732;2023-07-30T16:12:38;10.90;;;3.22;;
36241;SDS011;22283;42.748;12.732;2023-07-30T16:17:39;8.05;;;3.50;;
36241;SDS011;22283;42.748;12.732;2023-07-30T16:22:39;6.55;;;3.22;;
36241;SDS011;22283;42.748;12.732;2023-07-30T16:27:40;7.60;;;3.30;;
36241;SDS011;22283;42.748;12.732;2023-07-30T16:32:41;7.13;;;2.88;;
36241;SDS011;22283;42.748;12.732;2023-07-30T16:37:43;7.57;;;3.30;;
36241;SDS011;22283;42.748;12.732;2023-07-30T16:42:44;7.57;;;3.33;;
36241;SDS011;22283;42.748;12.732;2023-07-30T16:47:45;12.48;;;3.72;;
36241;SDS011;22283;42.748;12.732;2023-07-30T16:52:46;9.35;;;2.80;;
36241;SDS011;22283;42.748;12.732;2023-07-30T16:57:47;11.43;;;3.90;;
36241;SDS011;22283;42.748;12.732;2023-07-30T17:02:48;12.15;;;3.75;;
36241;SDS011;22283;42.748;12.732;2023-07-30T17:07:49;9.25;;;3.78;;
36241;SDS011;22283;42.748;12.732;2023-07-30T17:12:52;5.25;;;3.17;;
36241;SDS011;22283;42.748;12.732;2023-07-30T17:17:53;9.15;;;2.92;;
36241;SDS011;22283;42.748;12.732;2023-07-30T17:22:54;11.70;;;3.08;;
36241;SDS011;22283;42.748;12.732;2023-07-30T17:27:55;9.10;;;3.38;;
36241;SDS011;22283;42.748;12.732;2023-07-30T17:32:55;10.55;;;3.72;;
36241;SDS011;22283;42.748;12.732;2023-07-30T17:37:56;6.20;;;2.67;;
36241;SDS011;22283;42.748;12.732;2023-07-30T17:42:57;11.23;;;3.28;;
36241;SDS011;22283;42.748;12.732;2023-07-30T17:47:57;8.75;;;2.95;;
36241;SDS011;22283;42.748;12.732;2023-07-30T17:52:58;14.73;;;3.65;;
36241;SDS011;22283;42.748;12.732;2023-07-30T17:57:59;7.97;;;3.63;;
36241;SDS011;22283;42.748;12.732;2023-07-30T18:03:00;37.53;;;5.63;;
36241;SDS011;22283;42.748;12.732;2023-07-30T18:08:00;9.57;;;3.22;;
36241;SDS011;22283;42.748;12.732;2023-07-30T18:13:01;17.63;;;3.92;;
36241;SDS011;22283;42.748;12.732;2023-07-30T18:18:02;8.25;;;3.08;;
36241;SDS011;22283;42.748;12.732;2023-07-30T18:23:04;8.80;;;3.10;;
36241;SDS011;22283;42.748;12.732;2023-07-30T18:28:05;21.92;;;3.25;;
36241;SDS011;22283;42.748;12.732;2023-07-30T18:33:07;7.18;;;3.13;;
36241;SDS011;22283;42.748;12.732;2023-07-30T18:38:07;6.03;;;3.47;;
36241;SDS011;22283;42.748;12.732;2023-07-30T18:43:08;8.85;;;2.85;;
36241;SDS011;22283;42.748;12.732;2023-07-30T18:48:09;15.40;;;4.15;;
36241;SDS011;22283;42.748;12.732;2023-07-30T18:53:10;13.25;;;3.53;;
36241;SDS011;22283;42.748;12.732;2023-07-30T18:58:11;8.95;;;3.20;;
36241;SDS011;22283;42.748;12.732;2023-07-30T19:03:11;12.05;;;3.65;;
36241;SDS011;22283;42.748;12.732;2023-07-30T19:08:12;7.68;;;3.33;;
36241;SDS011;22283;42.748;12.732;2023-07-30T19:13:13;13.90;;;3.58;;
36241;SDS011;22283;42.748;12.732;2023-07-30T19:18:14;16.45;;;3.70;;
36241;SDS011;22283;42.748;12.732;2023-07-30T19:23:15;15.45;;;3.50;;
36241;SDS011;22283;42.748;12.732;2023-07-30T19:28:15;12.13;;;3.50;;
36241;SDS011;22283;42.748;12.732;2023-07-30T19:33:18;6.68;;;3.10;;
36241;SDS011;22283;42.748;12.732;2023-07-30T19:38:18;7.68;;;3.30;;
36241;SDS011;22283;42.748;12.732;2023-07-30T19:43:20;6.35;;;2.95;;
36241;SDS011;22283;42.748;12.732;2023-07-30T19:48:22;12.18;;;4.03;;
36241;SDS011;22283;42.748;12.732;2023-07-30T19:53:23;9.52;;;3.60;;
36241;SDS011;22283;42.748;12.732;2023-07-30T19:58:28;14.68;;;3.28;;
36241;SDS011;22283;42.748;12.732;2023-07-30T20:03:31;10.85;;;4.75;;
36241;SDS011;22283;42.748;12.732;2023-07-30T20:08:32;7.47;;;4.35;;
36241;SDS011;22283;42.748;12.732;2023-07-30T20:13:33;20.90;;;11.65;;
36241;SDS011;22283;42.748;12.732;2023-07-30T20:18:34;34.05;;;17.55;;
36241;SDS011;22283;42.748;12.732;2023-07-30T20:23:35;20.38;;;9.15;;
36241;SDS011;22283;42.748;12.732;2023-07-30T20:28:36;7.82;;;4.20;;
36241;SDS011;22283;42.748;12.732;2023-07-30T20:33:37;19.75;;;4.68;;
36241;SDS011;22283;42.748;12.732;2023-07-30T20:38:38;12.20;;;3.88;;
36241;SDS011;22283;42.748;12.732;2023-07-30T20:43:39;7.95;;;4.03;;
36241;SDS011;22283;42.748;12.732;2023-07-30T20:48:43;8.15;;;3.70;;
36241;SDS011;22283;42.748;12.732;2023-07-30T20:53:44;5.93;;;3.03;;
36241;SDS011;22283;42.748;12.732;2023-07-30T20:58:44;10.27;;;3.75;;
36241;SDS011;22283;42.748;12.732;2023-07-30T21:03:45;9.50;;;3.83;;
36241;SDS011;22283;42.748;12.732;2023-07-30T21:08:49;8.93;;;3.53;;
36241;SDS011;22283;42.748;12.732;2023-07-30T21:13:49;8.15;;;3.15;;
36241;SDS011;22283;42.748;12.732;2023-07-30T21:18:50;24.15;;;4.05;;
36241;SDS011;22283;42.748;12.732;2023-07-30T21:23:51;4.80;;;3.15;;
36241;SDS011;22283;42.748;12.732;2023-07-30T21:28:51;8.43;;;3.22;;
36241;SDS011;22283;42.748;12.732;2023-07-30T21:33:52;7.78;;;2.92;;
36241;SDS011;22283;42.748;12.732;2023-07-30T21:38:53;6.97;;;3.08;;
36241;SDS011;22283;42.748;12.732;2023-07-30T21:43:57;9.50;;;3.60;;
36241;SDS011;22283;42.748;12.732;2023-07-30T21:48:58;7.93;;;3.05;;
36241;SDS011;22283;42.748;12.732;2023-07-30T21:53:59;5.22;;;2.70;;
36241;SDS011;22283;42.748;12.732;2023-07-30T21:59:05;5.60;;;2.97;;
36241;SDS011;22283;42.748;12.732;2023-07-30T22:04:06;7.80;;;3.35;;
36241;SDS011;22283;42.748;12.732;2023-07-30T22:09:06;8.68;;;3.00;;
36241;SDS011;22283;42.748;12.732;2023-07-30T22:14:10;10.63;;;3.22;;
36241;SDS011;22283;42.748;12.732;2023-07-30T22:19:11;4.80;;;2.70;;
36241;SDS011;22283;42.748;12.732;2023-07-30T22:24:12;11.38;;;2.92;;
36241;SDS011;22283;42.748;12.732;2023-07-30T22:29:14;6.28;;;2.35;;
36241;SDS011;22283;42.748;12.732;2023-07-30T22:34:15;7.25;;;3.28;;
36241;SDS011;22283;42.748;12.732;2023-07-30T22:39:15;9.43;;;3.63;;
36241;SDS011;22283;42.748;12.732;2023-07-30T22:49:17;7.20;;;2.28;;
36241;SDS011;22283;42.748;12.732;2023-07-30T22:54:17;5.63;;;2.63;;
36241;SDS011;22283;42.748;12.732;2023-07-30T23:04:19;12.60;;;3.08;;
36241;SDS011;22283;42.748;12.732;2023-07-30T23:14:22;7.03;;;2.95;;
36241;SDS011;22283;42.748;12.732;2023-07-30T23:24:23;4.65;;;2.60;;
36241;SDS011;22283;42.748;12.732;2023-07-30T23:34:24;9.70;;;3.17;;
36241;SDS011;22283;42.748;12.732;2023-07-30T23:44:26;7.35;;;3.03;;
36241;SDS011;22283;42.748;12.732;2023-07-30T23:54:27;4.25;;;2.63;;
